Villanueva del Ariscal, Spain
Current Conditions -  °F | °C
As of 5:00 PM on Wednesday 26 Nov 2014 (Local Time) from LEZL Reporting Station
Few Clouds Few Clouds  
Wind Chill: 17°   Ceiling: Unl
Heat Index: 17°   Visibility: 6mi
Dew Point: 11°   Wind: 2mph
Humidity: 68%   Direction: NA
Pressure: 29.8"   Gusts: NA
Location:  37.4°N, 6.14°W
Report Text: LEZL 261600Z VRB02KT 9999 FEW028 17/11 Q1009 NOSIG
Loading
Personal Weather Stations






























Interactive Weather Map New forecast layout! Learn more

10-Day Weather Forecast

Advertisements
Track Severe Weather on mobile